sensor_id;sensor_type;location;lat;lon;timestamp;temperature;humidity
68924;DHT22;55961;52.156;20.942;2023-04-09T00:01:24;9.70;82.10
68924;DHT22;55961;52.156;20.942;2023-04-09T00:03:50;9.60;82.30
68924;DHT22;55961;52.156;20.942;2023-04-09T00:06:16;9.60;82.50
68924;DHT22;55961;52.156;20.942;2023-04-09T00:08:42;9.60;82.30
68924;DHT22;55961;52.156;20.942;2023-04-09T00:11:08;9.50;82.40
68924;DHT22;55961;52.156;20.942;2023-04-09T00:13:33;9.60;82.60
68924;DHT22;55961;52.156;20.942;2023-04-09T00:16:00;9.60;82.70
68924;DHT22;55961;52.156;20.942;2023-04-09T00:18:26;9.50;82.70
68924;DHT22;55961;52.156;20.942;2023-04-09T00:20:52;9.60;82.70
68924;DHT22;55961;52.156;20.942;2023-04-09T00:23:17;9.50;82.60
68924;DHT22;55961;52.156;20.942;2023-04-09T00:25:43;9.50;82.60
68924;DHT22;55961;52.156;20.942;2023-04-09T00:28:09;9.50;82.80
68924;DHT22;55961;52.156;20.942;2023-04-09T00:30:35;9.50;83.00
68924;DHT22;55961;52.156;20.942;2023-04-09T00:33:01;9.40;83.20
68924;DHT22;55961;52.156;20.942;2023-04-09T00:35:27;9.40;83.30
68924;DHT22;55961;52.156;20.942;2023-04-09T00:37:53;9.40;83.50
68924;DHT22;55961;52.156;20.942;2023-04-09T00:40:19;9.30;83.50
68924;DHT22;55961;52.156;20.942;2023-04-09T00:42:45;9.30;83.50
68924;DHT22;55961;52.156;20.942;2023-04-09T00:45:12;9.30;83.70
68924;DHT22;55961;52.156;20.942;2023-04-09T00:47:38;9.30;83.90
68924;DHT22;55961;52.156;20.942;2023-04-09T00:50:05;9.30;83.90
68924;DHT22;55961;52.156;20.942;2023-04-09T00:52:31;9.30;84.00
68924;DHT22;55961;52.156;20.942;2023-04-09T00:55:04;9.30;84.20
68924;DHT22;55961;52.156;20.942;2023-04-09T00:57:30;9.30;84.10
68924;DHT22;55961;52.156;20.942;2023-04-09T00:59:56;9.20;84.20
68924;DHT22;55961;52.156;20.942;2023-04-09T01:02:22;9.20;84.20
68924;DHT22;55961;52.156;20.942;2023-04-09T01:04:49;9.30;84.20
68924;DHT22;55961;52.156;20.942;2023-04-09T01:07:32;9.20;84.20
68924;DHT22;55961;52.156;20.942;2023-04-09T01:13:11;9.20;84.60
68924;DHT22;55961;52.156;20.942;2023-04-09T01:15:45;9.20;84.90
68924;DHT22;55961;52.156;20.942;2023-04-09T01:20:58;9.20;84.90
68924;DHT22;55961;52.156;20.942;2023-04-09T01:23:34;9.20;84.90
68924;DHT22;55961;52.156;20.942;2023-04-09T01:29:06;9.20;85.00
68924;DHT22;55961;52.156;20.942;2023-04-09T01:31:36;9.30;85.00
68924;DHT22;55961;52.156;20.942;2023-04-09T01:34:02;9.30;85.00
68924;DHT22;55961;52.156;20.942;2023-04-09T01:36:30;9.30;85.00
68924;DHT22;55961;52.156;20.942;2023-04-09T01:38:59;9.30;85.30
68924;DHT22;55961;52.156;20.942;2023-04-09T01:41:26;9.30;85.40
68924;DHT22;55961;52.156;20.942;2023-04-09T01:43:53;9.30;85.40
68924;DHT22;55961;52.156;20.942;2023-04-09T01:46:20;9.30;85.30
68924;DHT22;55961;52.156;20.942;2023-04-09T01:48:47;9.30;85.40
68924;DHT22;55961;52.156;20.942;2023-04-09T01:51:14;9.30;85.30
68924;DHT22;55961;52.156;20.942;2023-04-09T01:53:41;9.30;85.30
68924;DHT22;55961;52.156;20.942;2023-04-09T01:56:08;9.30;85.40
68924;DHT22;55961;52.156;20.942;2023-04-09T01:58:34;9.30;85.40
68924;DHT22;55961;52.156;20.942;2023-04-09T02:01:29;9.30;85.30
68924;DHT22;55961;52.156;20.942;2023-04-09T02:04:01;9.30;85.10
68924;DHT22;55961;52.156;20.942;2023-04-09T02:06:47;9.30;84.90
68924;DHT22;55961;52.156;20.942;2023-04-09T02:09:17;9.30;84.80
68924;DHT22;55961;52.156;20.942;2023-04-09T02:11:46;9.20;84.80
68924;DHT22;55961;52.156;20.942;2023-04-09T02:14:14;9.20;84.80
68924;DHT22;55961;52.156;20.942;2023-04-09T02:16:41;9.20;84.70
68924;DHT22;55961;52.156;20.942;2023-04-09T02:19:07;9.20;84.70
68924;DHT22;55961;52.156;20.942;2023-04-09T02:21:33;9.20;84.60
68924;DHT22;55961;52.156;20.942;2023-04-09T02:23:59;9.20;84.60
68924;DHT22;55961;52.156;20.942;2023-04-09T02:26:25;9.10;84.70
68924;DHT22;55961;52.156;20.942;2023-04-09T02:28:51;9.10;84.70
68924;DHT22;55961;52.156;20.942;2023-04-09T02:31:17;9.10;85.00
68924;DHT22;55961;52.156;20.942;2023-04-09T02:33:42;9.10;85.20
68924;DHT22;55961;52.156;20.942;2023-04-09T02:36:12;9.10;85.40
68924;DHT22;55961;52.156;20.942;2023-04-09T02:38:41;9.10;85.70
68924;DHT22;55961;52.156;20.942;2023-04-09T02:41:07;9.10;85.90
68924;DHT22;55961;52.156;20.942;2023-04-09T02:43:33;9.10;86.00
68924;DHT22;55961;52.156;20.942;2023-04-09T02:45:59;9.10;86.10
68924;DHT22;55961;52.156;20.942;2023-04-09T02:48:25;9.10;86.40
68924;DHT22;55961;52.156;20.942;2023-04-09T02:50:51;9.10;86.50
68924;DHT22;55961;52.156;20.942;2023-04-09T02:53:17;9.10;86.50
68924;DHT22;55961;52.156;20.942;2023-04-09T02:55:43;9.10;86.30
68924;DHT22;55961;52.156;20.942;2023-04-09T02:58:09;9.10;86.20
68924;DHT22;55961;52.156;20.942;2023-04-09T03:00:35;9.10;86.30
68924;DHT22;55961;52.156;20.942;2023-04-09T03:03:00;9.10;86.30
68924;DHT22;55961;52.156;20.942;2023-04-09T03:05:26;9.10;86.30
68924;DHT22;55961;52.156;20.942;2023-04-09T03:07:53;9.10;86.20
68924;DHT22;55961;52.156;20.942;2023-04-09T03:10:18;9.00;86.20
68924;DHT22;55961;52.156;20.942;2023-04-09T03:12:44;9.00;86.30
68924;DHT22;55961;52.156;20.942;2023-04-09T03:15:12;9.10;86.40
68924;DHT22;55961;52.156;20.942;2023-04-09T03:17:38;9.00;86.60
68924;DHT22;55961;52.156;20.942;2023-04-09T03:20:06;9.00;86.70
68924;DHT22;55961;52.156;20.942;2023-04-09T03:22:36;9.00;86.80
68924;DHT22;55961;52.156;20.942;2023-04-09T03:25:02;9.00;86.70
68924;DHT22;55961;52.156;20.942;2023-04-09T03:27:28;9.00;86.80
68924;DHT22;55961;52.156;20.942;2023-04-09T03:29:55;9.10;86.80
68924;DHT22;55961;52.156;20.942;2023-04-09T03:32:21;9.10;86.70
68924;DHT22;55961;52.156;20.942;2023-04-09T03:34:47;9.00;86.50
68924;DHT22;55961;52.156;20.942;2023-04-09T03:37:12;9.00;86.40
68924;DHT22;55961;52.156;20.942;2023-04-09T03:39:38;8.90;86.60
68924;DHT22;55961;52.156;20.942;2023-04-09T03:42:04;8.90;86.60
68924;DHT22;55961;52.156;20.942;2023-04-09T03:44:30;8.90;86.60
68924;DHT22;55961;52.156;20.942;2023-04-09T03:46:56;8.80;86.90
68924;DHT22;55961;52.156;20.942;2023-04-09T03:49:22;8.80;87.10
68924;DHT22;55961;52.156;20.942;2023-04-09T03:51:48;8.80;87.20
68924;DHT22;55961;52.156;20.942;2023-04-09T03:54:13;8.80;87.20
68924;DHT22;55961;52.156;20.942;2023-04-09T03:56:39;8.80;87.20
68924;DHT22;55961;52.156;20.942;2023-04-09T03:59:05;8.70;87.10
68924;DHT22;55961;52.156;20.942;2023-04-09T04:01:31;8.70;87.00
68924;DHT22;55961;52.156;20.942;2023-04-09T04:03:57;8.70;86.90
68924;DHT22;55961;52.156;20.942;2023-04-09T04:06:23;8.70;86.70
68924;DHT22;55961;52.156;20.942;2023-04-09T04:08:49;8.70;86.60
68924;DHT22;55961;52.156;20.942;2023-04-09T04:11:15;8.70;86.50
68924;DHT22;55961;52.156;20.942;2023-04-09T04:13:41;8.60;86.50
68924;DHT22;55961;52.156;20.942;2023-04-09T04:16:08;8.60;86.40
68924;DHT22;55961;52.156;20.942;2023-04-09T04:18:34;8.60;86.10
68924;DHT22;55961;52.156;20.942;2023-04-09T04:21:00;8.60;86.00
68924;DHT22;55961;52.156;20.942;2023-04-09T04:23:26;8.50;85.90
68924;DHT22;55961;52.156;20.942;2023-04-09T04:25:52;8.50;85.80
68924;DHT22;55961;52.156;20.942;2023-04-09T04:28:18;8.50;85.90
68924;DHT22;55961;52.156;20.942;2023-04-09T04:30:44;8.40;85.90
68924;DHT22;55961;52.156;20.942;2023-04-09T04:33:10;8.40;85.80
68924;DHT22;55961;52.156;20.942;2023-04-09T04:35:36;8.40;85.90
68924;DHT22;55961;52.156;20.942;2023-04-09T04:38:02;8.30;86.00
68924;DHT22;55961;52.156;20.942;2023-04-09T04:40:28;8.30;86.10
68924;DHT22;55961;52.156;20.942;2023-04-09T04:42:54;8.20;86.40
68924;DHT22;55961;52.156;20.942;2023-04-09T04:45:20;8.20;86.80
68924;DHT22;55961;52.156;20.942;2023-04-09T04:47:46;8.10;87.20
68924;DHT22;55961;52.156;20.942;2023-04-09T04:50:12;8.10;87.50
68924;DHT22;55961;52.156;20.942;2023-04-09T04:52:37;8.10;88.00
68924;DHT22;55961;52.156;20.942;2023-04-09T04:55:05;8.10;88.20
68924;DHT22;55961;52.156;20.942;2023-04-09T04:57:31;8.10;88.60
68924;DHT22;55961;52.156;20.942;2023-04-09T04:59:57;8.10;88.90
68924;DHT22;55961;52.156;20.942;2023-04-09T05:02:23;8.10;89.40
68924;DHT22;55961;52.156;20.942;2023-04-09T05:04:49;8.10;89.80
68924;DHT22;55961;52.156;20.942;2023-04-09T05:07:15;8.10;90.00
68924;DHT22;55961;52.156;20.942;2023-04-09T05:09:41;8.10;90.50
68924;DHT22;55961;52.156;20.942;2023-04-09T05:12:08;8.10;90.60
68924;DHT22;55961;52.156;20.942;2023-04-09T05:14:35;8.10;90.80
68924;DHT22;55961;52.156;20.942;2023-04-09T05:17:00;8.10;91.10
68924;DHT22;55961;52.156;20.942;2023-04-09T05:19:27;8.10;91.20
68924;DHT22;55961;52.156;20.942;2023-04-09T05:21:52;8.20;91.30
68924;DHT22;55961;52.156;20.942;2023-04-09T05:24:18;8.20;91.20
68924;DHT22;55961;52.156;20.942;2023-04-09T05:26:44;8.20;91.40
68924;DHT22;55961;52.156;20.942;2023-04-09T05:29:10;8.20;91.30
68924;DHT22;55961;52.156;20.942;2023-04-09T05:31:36;8.20;91.60
68924;DHT22;55961;52.156;20.942;2023-04-09T05:34:02;8.20;91.50
68924;DHT22;55961;52.156;20.942;2023-04-09T05:36:28;8.30;91.70
68924;DHT22;55961;52.156;20.942;2023-04-09T05:38:54;8.30;91.80
68924;DHT22;55961;52.156;20.942;2023-04-09T05:41:20;8.40;91.80
68924;DHT22;55961;52.156;20.942;2023-04-09T05:43:46;8.40;91.80
68924;DHT22;55961;52.156;20.942;2023-04-09T05:46:11;8.50;91.70
68924;DHT22;55961;52.156;20.942;2023-04-09T05:48:38;8.50;91.40
68924;DHT22;55961;52.156;20.942;2023-04-09T05:51:03;8.60;91.40
68924;DHT22;55961;52.156;20.942;2023-04-09T05:53:30;8.60;91.10
68924;DHT22;55961;52.156;20.942;2023-04-09T05:55:56;8.70;90.90
68924;DHT22;55961;52.156;20.942;2023-04-09T05:58:22;8.80;90.40
68924;DHT22;55961;52.156;20.942;2023-04-09T06:00:48;8.80;90.20
68924;DHT22;55961;52.156;20.942;2023-04-09T06:03:16;8.90;90.00
68924;DHT22;55961;52.156;20.942;2023-04-09T06:05:44;8.90;90.00
68924;DHT22;55961;52.156;20.942;2023-04-09T06:08:10;9.00;89.90
68924;DHT22;55961;52.156;20.942;2023-04-09T06:10:36;9.00;89.70
68924;DHT22;55961;52.156;20.942;2023-04-09T06:13:02;9.10;89.30
68924;DHT22;55961;52.156;20.942;2023-04-09T06:15:28;9.20;89.10
68924;DHT22;55961;52.156;20.942;2023-04-09T06:17:54;9.20;88.80
68924;DHT22;55961;52.156;20.942;2023-04-09T06:20:20;9.30;88.30
68924;DHT22;55961;52.156;20.942;2023-04-09T06:22:46;9.30;88.00
68924;DHT22;55961;52.156;20.942;2023-04-09T06:25:12;9.40;88.00
68924;DHT22;55961;52.156;20.942;2023-04-09T06:27:38;9.40;87.80
68924;DHT22;55961;52.156;20.942;2023-04-09T06:30:04;9.50;87.40
68924;DHT22;55961;52.156;20.942;2023-04-09T06:32:31;9.50;87.40
68924;DHT22;55961;52.156;20.942;2023-04-09T06:34:57;9.60;86.90
68924;DHT22;55961;52.156;20.942;2023-04-09T06:37:23;9.60;87.20
68924;DHT22;55961;52.156;20.942;2023-04-09T06:39:49;9.60;87.20
68924;DHT22;55961;52.156;20.942;2023-04-09T06:42:15;9.70;86.60
68924;DHT22;55961;52.156;20.942;2023-04-09T06:44:40;9.80;86.30
68924;DHT22;55961;52.156;20.942;2023-04-09T06:47:06;9.80;86.00
68924;DHT22;55961;52.156;20.942;2023-04-09T06:49:33;9.80;86.10
68924;DHT22;55961;52.156;20.942;2023-04-09T06:51:59;9.90;86.20
68924;DHT22;55961;52.156;20.942;2023-04-09T06:54:25;10.00;86.20
68924;DHT22;55961;52.156;20.942;2023-04-09T06:56:51;10.10;85.20
68924;DHT22;55961;52.156;20.942;2023-04-09T06:59:17;10.20;85.50
68924;DHT22;55961;52.156;20.942;2023-04-09T07:01:45;10.30;86.20
68924;DHT22;55961;52.156;20.942;2023-04-09T07:04:12;10.40;86.80
68924;DHT22;55961;52.156;20.942;2023-04-09T07:06:41;10.60;86.90
68924;DHT22;55961;52.156;20.942;2023-04-09T07:09:07;10.70;85.40
68924;DHT22;55961;52.156;20.942;2023-04-09T07:11:33;10.80;84.70
68924;DHT22;55961;52.156;20.942;2023-04-09T07:13:59;10.90;84.10
68924;DHT22;55961;52.156;20.942;2023-04-09T07:16:25;11.00;84.00
68924;DHT22;55961;52.156;20.942;2023-04-09T07:18:50;11.10;83.30
68924;DHT22;55961;52.156;20.942;2023-04-09T07:21:17;11.20;82.50
68924;DHT22;55961;52.156;20.942;2023-04-09T07:23:42;11.30;81.70
68924;DHT22;55961;52.156;20.942;2023-04-09T07:26:09;11.40;81.20
68924;DHT22;55961;52.156;20.942;2023-04-09T07:28:34;11.50;80.30
68924;DHT22;55961;52.156;20.942;2023-04-09T07:31:01;11.60;80.00
68924;DHT22;55961;52.156;20.942;2023-04-09T07:33:30;11.60;79.70
68924;DHT22;55961;52.156;20.942;2023-04-09T07:35:56;11.70;80.00
68924;DHT22;55961;52.156;20.942;2023-04-09T07:38:22;11.80;78.90
68924;DHT22;55961;52.156;20.942;2023-04-09T07:40:48;11.90;78.90
68924;DHT22;55961;52.156;20.942;2023-04-09T07:43:13;11.90;78.30
68924;DHT22;55961;52.156;20.942;2023-04-09T07:45:40;12.00;77.30
68924;DHT22;55961;52.156;20.942;2023-04-09T07:48:06;12.10;76.50
68924;DHT22;55961;52.156;20.942;2023-04-09T07:50:34;12.20;76.50
68924;DHT22;55961;52.156;20.942;2023-04-09T07:52:59;12.30;76.70
68924;DHT22;55961;52.156;20.942;2023-04-09T07:55:25;12.40;75.80
68924;DHT22;55961;52.156;20.942;2023-04-09T07:57:52;12.50;74.60
68924;DHT22;55961;52.156;20.942;2023-04-09T08:00:19;12.60;74.00
68924;DHT22;55961;52.156;20.942;2023-04-09T08:02:45;12.70;73.80
68924;DHT22;55961;52.156;20.942;2023-04-09T08:05:11;12.80;73.00
68924;DHT22;55961;52.156;20.942;2023-04-09T08:07:37;12.80;71.60
68924;DHT22;55961;52.156;20.942;2023-04-09T08:10:04;12.90;70.60
68924;DHT22;55961;52.156;20.942;2023-04-09T08:12:30;13.00;70.40
68924;DHT22;55961;52.156;20.942;2023-04-09T08:14:57;13.00;70.00
68924;DHT22;55961;52.156;20.942;2023-04-09T08:17:22;13.10;69.80
68924;DHT22;55961;52.156;20.942;2023-04-09T08:19:49;13.10;69.30
68924;DHT22;55961;52.156;20.942;2023-04-09T08:22:15;13.20;69.60
68924;DHT22;55961;52.156;20.942;2023-04-09T08:24:41;13.30;70.30
68924;DHT22;55961;52.156;20.942;2023-04-09T08:27:08;13.40;70.30
68924;DHT22;55961;52.156;20.942;2023-04-09T08:29:34;13.50;69.50
68924;DHT22;55961;52.156;20.942;2023-04-09T08:32:00;13.60;69.70
68924;DHT22;55961;52.156;20.942;2023-04-09T08:34:26;13.70;69.20
68924;DHT22;55961;52.156;20.942;2023-04-09T08:36:52;13.80;68.70
68924;DHT22;55961;52.156;20.942;2023-04-09T08:39:18;14.00;68.30
68924;DHT22;55961;52.156;20.942;2023-04-09T08:41:45;14.10;67.20
68924;DHT22;55961;52.156;20.942;2023-04-09T08:44:13;14.30;67.20
68924;DHT22;55961;52.156;20.942;2023-04-09T08:46:39;14.40;66.10
68924;DHT22;55961;52.156;20.942;2023-04-09T08:49:07;14.60;65.50
68924;DHT22;55961;52.156;20.942;2023-04-09T08:51:34;14.70;64.40
68924;DHT22;55961;52.156;20.942;2023-04-09T08:54:01;14.90;63.70
68924;DHT22;55961;52.156;20.942;2023-04-09T08:56:27;14.90;62.70
68924;DHT22;55961;52.156;20.942;2023-04-09T08:58:54;15.00;61.40
68924;DHT22;55961;52.156;20.942;2023-04-09T09:01:30;15.00;61.60
68924;DHT22;55961;52.156;20.942;2023-04-09T09:03:58;15.10;62.30
68924;DHT22;55961;52.156;20.942;2023-04-09T09:06:26;15.20;62.50
68924;DHT22;55961;52.156;20.942;2023-04-09T09:11:36;15.30;60.80
68924;DHT22;55961;52.156;20.942;2023-04-09T09:14:04;15.40;60.90
68924;DHT22;55961;52.156;20.942;2023-04-09T09:16:31;15.40;60.70
68924;DHT22;55961;52.156;20.942;2023-04-09T09:19:02;15.40;60.00
68924;DHT22;55961;52.156;20.942;2023-04-09T09:21:29;15.50;58.90
68924;DHT22;55961;52.156;20.942;2023-04-09T09:23:55;15.50;58.40
68924;DHT22;55961;52.156;20.942;2023-04-09T09:26:26;15.50;58.10
68924;DHT22;55961;52.156;20.942;2023-04-09T09:28:54;15.50;58.10
68924;DHT22;55961;52.156;20.942;2023-04-09T09:31:21;15.50;58.00
68924;DHT22;55961;52.156;20.942;2023-04-09T09:33:47;15.50;58.30
68924;DHT22;55961;52.156;20.942;2023-04-09T09:36:14;15.50;58.90
68924;DHT22;55961;52.156;20.942;2023-04-09T09:38:57;15.60;59.20
68924;DHT22;55961;52.156;20.942;2023-04-09T09:41:26;15.60;58.80
68924;DHT22;55961;52.156;20.942;2023-04-09T09:43:52;15.50;58.90
68924;DHT22;55961;52.156;20.942;2023-04-09T09:46:20;15.50;58.50
68924;DHT22;55961;52.156;20.942;2023-04-09T09:48:46;15.50;59.30
68924;DHT22;55961;52.156;20.942;2023-04-09T09:51:13;15.50;59.10
68924;DHT22;55961;52.156;20.942;2023-04-09T09:53:43;15.60;59.30
68924;DHT22;55961;52.156;20.942;2023-04-09T09:56:21;15.60;59.30
68924;DHT22;55961;52.156;20.942;2023-04-09T10:01:39;15.80;60.10
68924;DHT22;55961;52.156;20.942;2023-04-09T10:04:06;16.00;59.60
68924;DHT22;55961;52.156;20.942;2023-04-09T10:06:40;16.20;59.60
68924;DHT22;55961;52.156;20.942;2023-04-09T10:09:08;16.40;57.50
68924;DHT22;55961;52.156;20.942;2023-04-09T10:11:35;16.60;55.90
68924;DHT22;55961;52.156;20.942;2023-04-09T10:14:02;16.80;56.20
68924;DHT22;55961;52.156;20.942;2023-04-09T10:16:28;16.90;55.80
68924;DHT22;55961;52.156;20.942;2023-04-09T10:18:55;17.00;55.80
68924;DHT22;55961;52.156;20.942;2023-04-09T10:24:12;17.10;54.10
68924;DHT22;55961;52.156;20.942;2023-04-09T10:26:41;17.30;54.60
68924;DHT22;55961;52.156;20.942;2023-04-09T10:29:10;17.40;53.40
68924;DHT22;55961;52.156;20.942;2023-04-09T10:34:21;17.80;53.00
68924;DHT22;55961;52.156;20.942;2023-04-09T10:36:58;18.00;52.10
68924;DHT22;55961;52.156;20.942;2023-04-09T10:39:30;18.20;51.00
68924;DHT22;55961;52.156;20.942;2023-04-09T10:41:58;18.30;51.00
68924;DHT22;55961;52.156;20.942;2023-04-09T10:44:25;18.40;50.80
68924;DHT22;55961;52.156;20.942;2023-04-09T10:46:53;18.50;50.80
68924;DHT22;55961;52.156;20.942;2023-04-09T10:49:25;18.50;49.80
68924;DHT22;55961;52.156;20.942;2023-04-09T10:52:04;18.40;49.60
68924;DHT22;55961;52.156;20.942;2023-04-09T10:59:37;18.40;52.80
68924;DHT22;55961;52.156;20.942;2023-04-09T11:02:08;18.40;52.00
68924;DHT22;55961;52.156;20.942;2023-04-09T11:07:22;18.40;51.70
68924;DHT22;55961;52.156;20.942;2023-04-09T11:09:49;18.40;52.00
68924;DHT22;55961;52.156;20.942;2023-04-09T11:12:16;18.40;51.90
68924;DHT22;55961;52.156;20.942;2023-04-09T11:14:42;18.50;51.60
68924;DHT22;55961;52.156;20.942;2023-04-09T11:17:07;18.60;51.40
68924;DHT22;55961;52.156;20.942;2023-04-09T11:19:34;18.60;51.50
68924;DHT22;55961;52.156;20.942;2023-04-09T11:22:03;18.70;51.50
68924;DHT22;55961;52.156;20.942;2023-04-09T11:24:44;18.70;50.70
68924;DHT22;55961;52.156;20.942;2023-04-09T11:27:11;18.80;50.60
68924;DHT22;55961;52.156;20.942;2023-04-09T11:29:38;18.70;50.40
68924;DHT22;55961;52.156;20.942;2023-04-09T11:32:04;18.70;50.50
68924;DHT22;55961;52.156;20.942;2023-04-09T11:34:31;18.80;50.80
68924;DHT22;55961;52.156;20.942;2023-04-09T11:36:57;18.80;51.30
68924;DHT22;55961;52.156;20.942;2023-04-09T11:39:24;19.00;50.70
68924;DHT22;55961;52.156;20.942;2023-04-09T11:41:51;19.10;50.90
68924;DHT22;55961;52.156;20.942;2023-04-09T11:44:19;19.30;49.30
68924;DHT22;55961;52.156;20.942;2023-04-09T11:46:46;19.50;49.20
68924;DHT22;55961;52.156;20.942;2023-04-09T11:49:13;19.60;48.60
68924;DHT22;55961;52.156;20.942;2023-04-09T11:51:40;19.70;48.20
68924;DHT22;55961;52.156;20.942;2023-04-09T11:54:07;19.80;47.70
68924;DHT22;55961;52.156;20.942;2023-04-09T11:56:34;19.90;47.80
68924;DHT22;55961;52.156;20.942;2023-04-09T11:59:02;20.00;47.80
68924;DHT22;55961;52.156;20.942;2023-04-09T12:01:31;20.00;48.20
68924;DHT22;55961;52.156;20.942;2023-04-09T12:03:58;20.10;48.00
68924;DHT22;55961;52.156;20.942;2023-04-09T12:06:25;20.20;47.60
68924;DHT22;55961;52.156;20.942;2023-04-09T12:08:58;20.30;47.70
68924;DHT22;55961;52.156;20.942;2023-04-09T12:11:28;20.30;48.00
68924;DHT22;55961;52.156;20.942;2023-04-09T12:14:01;20.40;48.10
68924;DHT22;55961;52.156;20.942;2023-04-09T12:16:34;20.40;47.30
68924;DHT22;55961;52.156;20.942;2023-04-09T12:19:04;20.40;47.30
68924;DHT22;55961;52.156;20.942;2023-04-09T12:21:50;20.40;47.20
68924;DHT22;55961;52.156;20.942;2023-04-09T12:24:19;20.30;47.00
68924;DHT22;55961;52.156;20.942;2023-04-09T12:26:47;20.20;47.00
68924;DHT22;55961;52.156;20.942;2023-04-09T12:29:14;20.10;47.20
68924;DHT22;55961;52.156;20.942;2023-04-09T12:31:41;20.00;46.90
68924;DHT22;55961;52.156;20.942;2023-04-09T12:34:07;19.90;46.70
68924;DHT22;55961;52.156;20.942;2023-04-09T12:36:33;19.90;47.50
68924;DHT22;55961;52.156;20.942;2023-04-09T12:38:59;19.80;47.70
68924;DHT22;55961;52.156;20.942;2023-04-09T12:41:26;19.80;47.50
68924;DHT22;55961;52.156;20.942;2023-04-09T12:43:52;19.80;47.20
68924;DHT22;55961;52.156;20.942;2023-04-09T12:46:18;19.70;47.00
68924;DHT22;55961;52.156;20.942;2023-04-09T12:48:45;19.70;47.40
68924;DHT22;55961;52.156;20.942;2023-04-09T12:51:12;19.70;46.90
68924;DHT22;55961;52.156;20.942;2023-04-09T12:53:38;19.70;46.60
68924;DHT22;55961;52.156;20.942;2023-04-09T12:56:04;19.70;47.20
68924;DHT22;55961;52.156;20.942;2023-04-09T12:58:31;19.60;46.80
68924;DHT22;55961;52.156;20.942;2023-04-09T13:00:57;19.60;47.00
68924;DHT22;55961;52.156;20.942;2023-04-09T13:03:23;19.50;47.20
68924;DHT22;55961;52.156;20.942;2023-04-09T13:05:50;19.50;47.00
68924;DHT22;55961;52.156;20.942;2023-04-09T13:08:16;19.40;46.90
68924;DHT22;55961;52.156;20.942;2023-04-09T13:10:42;19.30;47.20
68924;DHT22;55961;52.156;20.942;2023-04-09T13:13:09;19.30;47.40
68924;DHT22;55961;52.156;20.942;2023-04-09T13:15:38;19.20;47.20
68924;DHT22;55961;52.156;20.942;2023-04-09T13:18:04;19.10;47.10
68924;DHT22;55961;52.156;20.942;2023-04-09T13:20:30;19.10;48.10
68924;DHT22;55961;52.156;20.942;2023-04-09T13:22:56;18.90;48.40
68924;DHT22;55961;52.156;20.942;2023-04-09T13:25:22;18.80;49.60
68924;DHT22;55961;52.156;20.942;2023-04-09T13:27:48;18.60;50.40
68924;DHT22;55961;52.156;20.942;2023-04-09T13:30:14;18.50;51.00
68924;DHT22;55961;52.156;20.942;2023-04-09T13:32:40;18.20;51.30
68924;DHT22;55961;52.156;20.942;2023-04-09T13:35:07;18.10;52.00
68924;DHT22;55961;52.156;20.942;2023-04-09T13:37:36;17.90;52.20
68924;DHT22;55961;52.156;20.942;2023-04-09T13:40:02;17.70;52.50
68924;DHT22;55961;52.156;20.942;2023-04-09T13:42:28;17.70;52.20
68924;DHT22;55961;52.156;20.942;2023-04-09T13:44:56;17.60;52.60
68924;DHT22;55961;52.156;20.942;2023-04-09T13:47:22;17.60;53.20
68924;DHT22;55961;52.156;20.942;2023-04-09T13:49:48;17.50;53.50
68924;DHT22;55961;52.156;20.942;2023-04-09T13:52:16;17.50;53.50
68924;DHT22;55961;52.156;20.942;2023-04-09T13:54:42;17.50;53.70
68924;DHT22;55961;52.156;20.942;2023-04-09T13:57:08;17.50;54.70
68924;DHT22;55961;52.156;20.942;2023-04-09T13:59:35;17.50;54.80
68924;DHT22;55961;52.156;20.942;2023-04-09T14:02:03;17.60;55.30
68924;DHT22;55961;52.156;20.942;2023-04-09T14:04:29;17.60;55.10
68924;DHT22;55961;52.156;20.942;2023-04-09T14:06:55;17.70;54.10
68924;DHT22;55961;52.156;20.942;2023-04-09T14:09:24;17.70;54.60
68924;DHT22;55961;52.156;20.942;2023-04-09T14:11:50;17.80;54.90
68924;DHT22;55961;52.156;20.942;2023-04-09T14:14:16;17.90;55.30
68924;DHT22;55961;52.156;20.942;2023-04-09T14:16:42;18.00;55.10
68924;DHT22;55961;52.156;20.942;2023-04-09T14:19:08;18.10;55.40
68924;DHT22;55961;52.156;20.942;2023-04-09T14:21:35;18.20;54.70
68924;DHT22;55961;52.156;20.942;2023-04-09T14:24:00;18.30;54.40
68924;DHT22;55961;52.156;20.942;2023-04-09T14:26:26;18.40;54.20
68924;DHT22;55961;52.156;20.942;2023-04-09T14:28:53;18.40;53.70
68924;DHT22;55961;52.156;20.942;2023-04-09T14:31:19;18.50;53.90
68924;DHT22;55961;52.156;20.942;2023-04-09T14:33:46;18.50;53.40
68924;DHT22;55961;52.156;20.942;2023-04-09T14:36:12;18.50;53.30
68924;DHT22;55961;52.156;20.942;2023-04-09T14:38:38;18.50;52.50
68924;DHT22;55961;52.156;20.942;2023-04-09T14:41:04;18.50;52.40
68924;DHT22;55961;52.156;20.942;2023-04-09T14:43:31;18.40;52.50
68924;DHT22;55961;52.156;20.942;2023-04-09T14:45:57;18.40;52.70
68924;DHT22;55961;52.156;20.942;2023-04-09T14:48:23;18.30;52.80
68924;DHT22;55961;52.156;20.942;2023-04-09T14:50:49;18.30;53.40
68924;DHT22;55961;52.156;20.942;2023-04-09T14:53:17;18.30;52.80
68924;DHT22;55961;52.156;20.942;2023-04-09T14:55:43;18.30;52.20
68924;DHT22;55961;52.156;20.942;2023-04-09T14:58:09;18.30;51.90
68924;DHT22;55961;52.156;20.942;2023-04-09T15:00:35;18.30;52.00
68924;DHT22;55961;52.156;20.942;2023-04-09T15:03:01;18.30;51.70
68924;DHT22;55961;52.156;20.942;2023-04-09T15:05:27;18.30;51.80
68924;DHT22;55961;52.156;20.942;2023-04-09T15:07:53;18.30;51.50
68924;DHT22;55961;52.156;20.942;2023-04-09T15:10:20;18.30;51.80
68924;DHT22;55961;52.156;20.942;2023-04-09T15:12:46;18.30;52.00
68924;DHT22;55961;52.156;20.942;2023-04-09T15:15:12;18.30;51.90
68924;DHT22;55961;52.156;20.942;2023-04-09T15:17:39;18.30;51.10
68924;DHT22;55961;52.156;20.942;2023-04-09T15:20:06;18.30;50.80
68924;DHT22;55961;52.156;20.942;2023-04-09T15:22:32;18.30;51.20
68924;DHT22;55961;52.156;20.942;2023-04-09T15:24:58;18.40;51.00
68924;DHT22;55961;52.156;20.942;2023-04-09T15:27:24;18.40;51.50
68924;DHT22;55961;52.156;20.942;2023-04-09T15:29:50;18.40;51.20
68924;DHT22;55961;52.156;20.942;2023-04-09T15:32:16;18.50;50.50
68924;DHT22;55961;52.156;20.942;2023-04-09T15:34:42;18.50;50.40
68924;DHT22;55961;52.156;20.942;2023-04-09T15:37:08;18.50;50.20
68924;DHT22;55961;52.156;20.942;2023-04-09T15:39:34;18.40;50.20
68924;DHT22;55961;52.156;20.942;2023-04-09T15:42:00;18.50;49.90
68924;DHT22;55961;52.156;20.942;2023-04-09T15:44:26;18.40;50.10
68924;DHT22;55961;52.156;20.942;2023-04-09T15:46:52;18.40;50.00
68924;DHT22;55961;52.156;20.942;2023-04-09T15:49:19;18.40;49.80